createdAt,value
2023-02-19T00:00:07.373Z,-20.17
2023-02-19T00:02:42.127Z,-20.40
2023-02-19T00:05:11.372Z,-20.31
2023-02-19T00:07:40.284Z,-20.95
2023-02-19T00:10:09.341Z,-20.37
2023-02-19T00:12:37.930Z,-20.47
2023-02-19T00:15:06.961Z,-20.55
2023-02-19T00:17:35.659Z,-20.47
2023-02-19T00:20:04.420Z,-20.50
2023-02-19T00:22:33.164Z,-20.54
2023-02-19T00:25:01.742Z,-21.25
2023-02-19T00:27:30.421Z,-20.68
2023-02-19T00:29:59.471Z,-20.81
2023-02-19T00:32:28.043Z,-20.68
2023-02-19T00:34:56.911Z,-20.72
2023-02-19T00:37:26.968Z,-20.90
2023-02-19T00:39:55.816Z,-20.98
2023-02-19T00:42:24.584Z,-20.95
2023-02-19T00:44:53.107Z,-21.56
2023-02-19T00:47:21.930Z,-20.87
2023-02-19T00:49:50.585Z,-21.14
2023-02-19T00:52:19.330Z,-21.74
2023-02-19T00:54:48.247Z,-21.09
2023-02-19T00:57:16.984Z,-21.13
2023-02-19T00:59:45.686Z,-21.41
2023-02-19T01:02:14.544Z,-21.28
2023-02-19T01:04:43.324Z,-21.85
2023-02-19T01:07:12.580Z,-21.20
2023-02-19T01:09:41.241Z,-21.23
2023-02-19T01:12:09.981Z,-21.53
2023-02-19T01:14:38.741Z,-21.58
2023-02-19T01:17:07.545Z,-21.50
2023-02-19T01:19:36.303Z,-21.54
2023-02-19T01:22:05.125Z,-21.39
2023-02-19T01:24:33.779Z,-22.05
2023-02-19T01:27:02.515Z,-21.34
2023-02-19T01:29:31.517Z,-21.59
2023-02-19T01:32:02.930Z,-21.53
2023-02-19T01:34:34.182Z,-21.47
2023-02-19T01:37:02.886Z,-21.37
2023-02-19T01:39:31.764Z,-21.32
2023-02-19T01:42:00.900Z,-21.50
2023-02-19T01:44:29.680Z,-21.36
2023-02-19T01:46:59.423Z,-22.16
2023-02-19T01:49:49.503Z,-21.50
2023-02-19T01:52:35.221Z,-21.48
2023-02-19T01:55:07.221Z,-21.38
2023-02-19T01:57:40.927Z,-21.54
2023-02-19T02:00:13.786Z,-22.23
2023-02-19T02:02:45.901Z,-22.30
2023-02-19T02:05:46.309Z,-21.59
2023-02-19T02:08:36.040Z,-22.35
2023-02-19T02:11:05.362Z,-21.83
2023-02-19T02:13:36.135Z,-22.00
2023-02-19T02:16:16.775Z,-21.64
2023-02-19T02:19:28.564Z,-21.68
2023-02-19T02:22:09.016Z,-21.85
2023-02-19T02:25:01.531Z,-21.78
2023-02-19T02:27:54.406Z,-22.01
2023-02-19T02:30:38.906Z,-21.75
2023-02-19T02:33:13.610Z,-21.74
2023-02-19T02:35:54.200Z,-21.75
2023-02-19T02:38:29.861Z,-22.55
2023-02-19T02:40:59.224Z,-21.90
2023-02-19T02:43:28.277Z,-21.84
2023-02-19T02:45:57.123Z,-22.02
2023-02-19T02:48:43.453Z,-21.92
2023-02-19T02:51:27.713Z,-21.94
2023-02-19T02:54:31.924Z,-22.13
2023-02-19T02:57:03.943Z,-22.32
2023-02-19T02:59:40.215Z,-22.10
2023-02-19T03:02:15.811Z,-22.09
2023-02-19T03:05:26.868Z,-21.86
2023-02-19T03:08:13.085Z,-21.87
2023-02-19T03:10:57.764Z,-21.90
2023-02-19T03:13:52.966Z,-21.92
2023-02-19T03:16:45.729Z,-22.06
2023-02-19T03:19:20.654Z,-22.00
2023-02-19T03:21:59.853Z,-21.78
2023-02-19T03:24:52.081Z,-21.76
2023-02-19T03:27:22.986Z,-21.76
2023-02-19T03:30:02.884Z,-21.73
2023-02-19T03:32:38.095Z,-21.85
2023-02-19T03:35:12.623Z,-21.80
2023-02-19T03:38:02.253Z,-21.45
2023-02-19T03:40:42.580Z,-20.60
2023-02-19T03:43:20.340Z,-19.62
2023-02-19T03:45:59.437Z,-19.67
2023-02-19T03:48:39.232Z,-18.38
2023-02-19T03:51:40.788Z,-17.92
2023-02-19T03:54:26.963Z,-17.22
2023-02-19T03:57:03.070Z,-17.13
2023-02-19T03:59:44.843Z,-17.21
2023-02-19T04:02:30.512Z,-17.68
2023-02-19T04:05:18.088Z,-17.80
2023-02-19T04:07:54.852Z,-17.87
2023-02-19T04:10:32.667Z,-18.18
2023-02-19T04:13:07.429Z,-17.97
2023-02-19T04:15:37.989Z,-18.68
2023-02-19T04:18:15.834Z,-18.20
2023-02-19T04:20:47.072Z,-18.01
2023-02-19T04:23:20.376Z,-18.21
2023-02-19T04:25:55.880Z,-18.37
2023-02-19T04:28:24.800Z,-18.24
2023-02-19T04:30:53.418Z,-18.16
2023-02-19T04:33:22.353Z,-18.36
2023-02-19T04:35:51.038Z,-18.09
2023-02-19T04:38:19.754Z,-18.16
2023-02-19T04:40:48.616Z,-17.98
2023-02-19T04:43:17.418Z,-18.10
2023-02-19T04:45:46.136Z,-17.98
2023-02-19T04:48:15.492Z,-17.80
2023-02-19T04:50:44.496Z,-18.07
2023-02-19T04:53:13.144Z,-17.98
2023-02-19T04:55:42.079Z,-17.91
2023-02-19T04:58:10.774Z,-17.76
2023-02-19T05:00:39.531Z,-17.85
2023-02-19T05:03:08.295Z,-17.90
2023-02-19T05:05:37.155Z,-17.78
2023-02-19T05:08:06.050Z,-17.85
2023-02-19T05:10:35.392Z,-17.68
2023-02-19T05:13:04.172Z,-17.39
2023-02-19T05:15:32.839Z,-17.42
2023-02-19T05:18:01.617Z,-17.32
2023-02-19T05:20:30.232Z,-17.09
2023-02-19T05:22:58.979Z,-17.66
2023-02-19T05:25:27.574Z,-17.56
2023-02-19T05:28:16.256Z,-16.67
2023-02-19T05:30:54.085Z,-16.65
2023-02-19T05:33:25.395Z,-16.53
2023-02-19T05:35:56.796Z,-16.86
2023-02-19T05:38:25.815Z,-17.12
2023-02-19T05:40:54.539Z,-16.00
2023-02-19T05:43:23.195Z,-15.71
2023-02-19T05:45:54.315Z,-15.73
2023-02-19T05:48:23.143Z,-15.32
2023-02-19T05:50:51.879Z,-15.33
2023-02-19T05:53:22.297Z,-15.10
2023-02-19T05:55:51.135Z,-14.81
2023-02-19T05:58:20.195Z,-14.65
2023-02-19T06:00:49.038Z,-14.79
2023-02-19T06:03:17.714Z,-14.12
2023-02-19T06:05:46.381Z,-14.21
2023-02-19T06:08:16.403Z,-14.11
2023-02-19T06:10:45.243Z,-14.11
2023-02-19T06:13:14.691Z,-14.36
2023-02-19T06:15:44.243Z,-14.32
2023-02-19T06:18:13.090Z,-14.43
2023-02-19T06:20:44.829Z,-14.42
2023-02-19T06:23:13.551Z,-14.39
2023-02-19T06:25:42.849Z,-14.19
2023-02-19T06:28:12.529Z,-14.11
2023-02-19T06:30:41.218Z,-13.91
2023-02-19T06:33:09.991Z,-13.76
2023-02-19T06:35:38.633Z,-13.80
2023-02-19T06:38:07.454Z,-13.82
2023-02-19T06:40:36.032Z,-13.61
2023-02-19T06:43:05.068Z,-13.56
2023-02-19T06:45:33.647Z,-13.23
2023-02-19T06:48:02.528Z,-13.17
2023-02-19T06:50:31.309Z,-12.97
2023-02-19T06:53:00.235Z,-12.70
2023-02-19T06:55:28.976Z,-12.32
2023-02-19T06:57:58.306Z,-12.19
2023-02-19T07:00:27.137Z,-12.11
2023-02-19T07:02:57.288Z,-12.01
2023-02-19T07:05:26.167Z,-11.84
2023-02-19T07:07:54.906Z,-11.68
2023-02-19T07:10:23.867Z,-11.59
2023-02-19T07:12:52.906Z,-11.53
2023-02-19T07:15:24.681Z,-11.54
2023-02-19T07:17:53.442Z,-11.47
2023-02-19T07:20:22.116Z,-11.23
2023-02-19T07:22:51.270Z,-11.26
2023-02-19T07:25:22.722Z,-11.25
2023-02-19T07:27:51.514Z,-11.28
2023-02-19T07:30:20.301Z,-11.27
2023-02-19T07:32:49.226Z,-11.33
2023-02-19T07:35:18.065Z,-11.29
2023-02-19T07:37:46.803Z,-11.12
2023-02-19T07:40:15.993Z,-11.21
2023-02-19T07:42:44.789Z,-11.06
2023-02-19T07:45:13.767Z,-10.84
2023-02-19T07:47:42.509Z,-10.69
2023-02-19T07:50:13.887Z,-10.42
2023-02-19T07:52:42.616Z,-10.61
2023-02-19T07:55:11.351Z,-10.52
2023-02-19T07:57:40.311Z,-10.60
2023-02-19T08:00:09.290Z,-10.85
2023-02-19T08:03:02.310Z,-10.89
2023-02-19T08:05:33.771Z,-10.60
2023-02-19T08:08:02.409Z,-10.63
2023-02-19T08:10:49.585Z,-10.35
2023-02-19T08:13:23.499Z,-10.51
2023-02-19T08:16:21.727Z,-10.56
2023-02-19T08:18:50.840Z,-10.97
2023-02-19T08:21:19.726Z,-10.46
2023-02-19T08:23:50.911Z,-10.66
2023-02-19T08:26:20.208Z,-10.60
2023-02-19T08:28:49.887Z,-10.78
2023-02-19T08:31:18.815Z,-10.71
2023-02-19T08:33:47.504Z,-10.56
2023-02-19T08:36:16.240Z,-10.54
2023-02-19T08:38:44.830Z,-10.72
2023-02-19T08:41:16.628Z,-10.81
2023-02-19T08:43:45.524Z,-10.78
2023-02-19T08:46:14.582Z,-10.80
2023-02-19T08:48:43.562Z,-10.82
2023-02-19T08:51:13.309Z,-10.84
2023-02-19T08:53:42.637Z,-10.97
2023-02-19T08:56:14.270Z,-11.17
2023-02-19T08:58:43.428Z,-11.28
2023-02-19T09:01:14.936Z,-11.49
2023-02-19T09:03:44.057Z,-11.38
2023-02-19T09:06:18.452Z,-11.47
2023-02-19T09:08:47.042Z,-11.30
2023-02-19T09:11:16.244Z,-11.49
2023-02-19T09:13:45.408Z,-11.58
2023-02-19T09:16:14.184Z,-11.45
2023-02-19T09:18:42.825Z,-11.40
2023-02-19T09:21:11.846Z,-11.47
2023-02-19T09:23:40.926Z,-11.31
2023-02-19T09:26:12.108Z,-11.51
2023-02-19T09:28:42.407Z,-11.91
2023-02-19T09:31:17.047Z,-11.79
2023-02-19T09:33:49.815Z,-11.64
2023-02-19T09:36:19.581Z,-11.81
2023-02-19T09:38:51.417Z,-11.58
2023-02-19T09:41:28.971Z,-11.67
2023-02-19T09:44:03.804Z,-11.62
2023-02-19T09:46:43.456Z,-11.71
2023-02-19T09:49:21.976Z,-11.56
2023-02-19T09:51:57.564Z,-11.71
2023-02-19T09:54:29.435Z,-11.74
2023-02-19T09:57:01.120Z,-11.99
2023-02-19T09:59:42.981Z,-12.01
2023-02-19T10:02:17.824Z,-12.07
2023-02-19T10:04:48.622Z,-12.26
2023-02-19T10:07:24.638Z,-12.23
2023-02-19T10:10:22.512Z,-12.06
2023-02-19T10:12:54.920Z,-12.13
2023-02-19T10:15:27.400Z,-12.15
2023-02-19T10:17:56.883Z,-12.25
2023-02-19T10:20:28.899Z,-12.17
2023-02-19T10:23:12.240Z,-12.18
2023-02-19T10:26:03.004Z,-12.27
2023-02-19T10:28:35.085Z,-12.27
2023-02-19T10:31:12.914Z,-12.29
2023-02-19T10:33:53.139Z,-12.45
2023-02-19T10:36:43.341Z,-12.42
2023-02-19T10:39:24.143Z,-12.27
2023-02-19T10:41:56.461Z,-12.36
2023-02-19T10:44:32.001Z,-12.36
2023-02-19T10:47:04.302Z,-12.62
2023-02-19T10:49:34.910Z,-12.28
2023-02-19T10:52:28.584Z,-12.31
2023-02-19T10:55:21.602Z,-12.29
2023-02-19T10:57:51.365Z,-12.43
2023-02-19T11:00:29.632Z,-12.35
2023-02-19T11:03:23.312Z,-12.36
2023-02-19T11:06:02.410Z,-13.12
2023-02-19T11:08:34.770Z,-12.69
2023-02-19T11:11:03.934Z,-12.68
2023-02-19T11:13:38.768Z,-12.58
2023-02-19T11:16:07.780Z,-12.77
2023-02-19T11:18:37.112Z,-12.60
2023-02-19T11:21:08.309Z,-12.66
2023-02-19T11:23:44.664Z,-12.73
2023-02-19T11:26:26.920Z,-12.71
2023-02-19T11:29:01.266Z,-12.76
2023-02-19T11:31:36.836Z,-13.26
2023-02-19T11:34:26.811Z,-12.62
2023-02-19T11:37:10.850Z,-12.70
2023-02-19T11:39:42.432Z,-12.65
2023-02-19T11:42:40.626Z,-12.67
2023-02-19T11:45:18.292Z,-12.67
2023-02-19T11:47:59.474Z,-12.70
2023-02-19T11:50:50.117Z,-12.95
2023-02-19T11:53:34.154Z,-12.85
2023-02-19T11:56:20.387Z,-12.99
2023-02-19T11:59:22.916Z,-12.95
2023-02-19T12:02:08.881Z,-13.15
2023-02-19T12:04:55.647Z,-13.01
2023-02-19T12:08:14.604Z,-13.06
2023-02-19T12:11:16.709Z,-13.11
2023-02-19T12:14:25.602Z,-13.33
2023-02-19T12:17:12.426Z,-13.22
2023-02-19T12:20:00.026Z,-13.43
2023-02-19T12:22:29.321Z,-13.29
2023-02-19T12:25:28.837Z,-13.41
2023-02-19T12:28:27.920Z,-13.32
2023-02-19T12:31:15.622Z,-13.33
2023-02-19T12:34:05.358Z,-13.37
2023-02-19T12:36:53.797Z,-13.39
2023-02-19T12:39:44.918Z,-13.65
2023-02-19T12:42:24.998Z,-13.67
2023-02-19T12:45:06.208Z,-13.80
2023-02-19T12:47:41.537Z,-13.57
2023-02-19T12:50:22.542Z,-14.20
2023-02-19T12:53:01.880Z,-13.75
2023-02-19T12:55:37.401Z,-14.00
2023-02-19T12:58:12.382Z,-13.65
2023-02-19T13:00:51.310Z,-13.74
2023-02-19T13:03:38.367Z,-13.94
2023-02-19T13:06:09.416Z,-13.72
2023-02-19T13:09:06.411Z,-13.95
2023-02-19T13:12:04.264Z,-13.85
2023-02-19T13:14:43.866Z,-13.95
2023-02-19T13:17:42.524Z,-13.87
2023-02-19T13:20:30.225Z,-13.87
2023-02-19T13:23:41.745Z,-13.85
2023-02-19T13:26:19.608Z,-13.85
2023-02-19T13:29:20.641Z,-13.84
2023-02-19T13:32:18.279Z,-13.80
2023-02-19T13:34:56.214Z,-13.79
2023-02-19T13:37:26.359Z,-13.89
2023-02-19T13:40:05.669Z,-13.83
2023-02-19T13:42:37.154Z,-13.88
2023-02-19T13:45:07.853Z,-13.92
2023-02-19T13:48:17.825Z,-13.71
2023-02-19T13:50:46.682Z,-14.08
2023-02-19T13:53:54.770Z,-13.70
2023-02-19T13:56:32.307Z,-13.69
2023-02-19T13:59:26.902Z,-13.65
2023-02-19T14:01:55.553Z,-13.61
2023-02-19T14:05:04.241Z,-13.76
2023-02-19T14:07:36.262Z,-13.58
2023-02-19T14:10:12.287Z,-13.73
2023-02-19T14:12:41.086Z,-13.88
2023-02-19T14:15:50.548Z,-13.51
2023-02-19T14:18:45.213Z,-13.49
2023-02-19T14:21:29.078Z,-14.12
2023-02-19T14:23:59.245Z,-13.61
2023-02-19T14:26:28.797Z,-14.07
2023-02-19T14:28:58.215Z,-13.41
2023-02-19T14:31:37.228Z,-13.40
2023-02-19T14:34:16.455Z,-14.00
2023-02-19T14:37:01.297Z,-13.41
2023-02-19T14:39:39.432Z,-13.47
2023-02-19T14:42:23.545Z,-13.30
2023-02-19T14:44:58.091Z,-13.52
2023-02-19T14:47:31.491Z,-13.35
2023-02-19T14:50:06.797Z,-13.37
2023-02-19T14:52:50.812Z,-13.26
2023-02-19T14:55:26.872Z,-13.49
2023-02-19T14:57:57.910Z,-13.42
2023-02-19T15:00:38.019Z,-13.34
2023-02-19T15:03:07.931Z,-13.18
2023-02-19T15:05:38.224Z,-13.32
2023-02-19T15:08:33.136Z,-13.24
2023-02-19T15:11:02.767Z,-13.17
2023-02-19T15:13:32.471Z,-13.19
2023-02-19T15:16:01.372Z,-13.54
2023-02-19T15:18:30.844Z,-13.16
2023-02-19T15:21:03.471Z,-13.29
2023-02-19T15:23:36.612Z,-13.20
2023-02-19T15:26:06.694Z,-13.38
2023-02-19T15:28:35.682Z,-13.26
2023-02-19T15:31:08.401Z,-13.07
2023-02-19T15:33:38.377Z,-13.16
2023-02-19T15:36:10.277Z,-13.07
2023-02-19T15:38:39.400Z,-13.16
2023-02-19T15:41:15.907Z,-13.04
2023-02-19T15:43:54.687Z,-13.34
2023-02-19T15:46:27.177Z,-13.17
2023-02-19T15:49:07.528Z,-13.21
2023-02-19T15:51:42.844Z,-13.31
2023-02-19T15:54:31.404Z,-13.32
2023-02-19T15:57:05.340Z,-13.45
2023-02-19T15:59:42.904Z,-13.21
2023-02-19T16:02:16.759Z,-13.25
2023-02-19T16:04:46.723Z,-13.80
2023-02-19T16:07:35.442Z,-13.49
2023-02-19T16:10:20.945Z,-13.48
2023-02-19T16:13:00.436Z,-13.65
2023-02-19T16:15:31.350Z,-13.50
2023-02-19T16:18:07.482Z,-13.82
2023-02-19T16:20:38.269Z,-13.75
2023-02-19T16:23:16.115Z,-13.77
2023-02-19T16:25:49.244Z,-13.98
2023-02-19T16:28:25.218Z,-13.67
2023-02-19T16:31:14.606Z,-13.71
2023-02-19T16:33:49.103Z,-13.85
2023-02-19T16:36:22.684Z,-13.77
2023-02-19T16:39:00.770Z,-13.82
2023-02-19T16:41:29.453Z,-13.94
2023-02-19T16:43:58.374Z,-13.92
2023-02-19T16:46:27.169Z,-14.02
2023-02-19T16:48:55.822Z,-14.04
2023-02-19T16:51:28.676Z,-13.84
2023-02-19T16:53:57.600Z,-14.07
2023-02-19T16:56:26.520Z,-13.85
2023-02-19T16:58:55.519Z,-14.02
2023-02-19T17:01:24.774Z,-13.93
2023-02-19T17:03:58.113Z,-14.04
2023-02-19T17:06:30.061Z,-14.03
2023-02-19T17:08:58.974Z,-13.93
2023-02-19T17:11:27.919Z,-13.93
2023-02-19T17:13:56.762Z,-13.78
2023-02-19T17:16:32.536Z,-13.68
2023-02-19T17:19:01.643Z,-14.58
2023-02-19T17:21:34.211Z,-13.84
2023-02-19T17:24:04.282Z,-13.68
2023-02-19T17:26:34.494Z,-13.53
2023-02-19T17:29:06.771Z,-13.69
2023-02-19T17:31:35.915Z,-13.49
2023-02-19T17:34:05.203Z,-13.68
2023-02-19T17:36:33.955Z,-13.62
2023-02-19T17:39:05.521Z,-13.54
2023-02-19T17:41:34.366Z,-14.08
2023-02-19T17:44:03.421Z,-13.85
2023-02-19T17:46:32.199Z,-14.03
2023-02-19T17:49:02.194Z,-13.41
2023-02-19T17:51:31.761Z,-14.15
2023-02-19T17:54:00.366Z,-13.38
2023-02-19T17:56:29.338Z,-13.64
2023-02-19T17:58:59.066Z,-13.48
2023-02-19T18:01:27.886Z,-13.58
2023-02-19T18:03:56.820Z,-13.63
2023-02-19T18:06:25.518Z,-13.46
2023-02-19T18:08:54.677Z,-13.73
2023-02-19T18:11:24.279Z,-13.74
2023-02-19T18:13:52.999Z,-13.65
2023-02-19T18:16:24.652Z,-13.68
2023-02-19T18:18:53.497Z,-13.65
2023-02-19T18:21:24.737Z,-13.78
2023-02-19T18:23:53.496Z,-13.53
2023-02-19T18:26:22.220Z,-13.70
2023-02-19T18:28:51.018Z,-13.77
2023-02-19T18:31:20.265Z,-14.10
2023-02-19T18:33:49.737Z,-13.77
2023-02-19T18:36:18.622Z,-13.60
2023-02-19T18:38:47.539Z,-13.89
2023-02-19T18:41:20.273Z,-13.65
2023-02-19T18:43:49.397Z,-13.87
2023-02-19T18:46:21.735Z,-13.69
2023-02-19T18:48:50.487Z,-13.80
2023-02-19T18:51:19.143Z,-14.29
2023-02-19T18:53:47.785Z,-13.78
2023-02-19T18:56:17.149Z,-13.60
2023-02-19T18:58:45.959Z,-13.68
2023-02-19T19:01:15.023Z,-13.73
2023-02-19T19:03:43.906Z,-13.71
2023-02-19T19:06:12.448Z,-13.73
2023-02-19T19:08:43.753Z,-13.99
2023-02-19T19:11:12.830Z,-14.09
2023-02-19T19:13:42.323Z,-14.01
2023-02-19T19:16:11.108Z,-14.15
2023-02-19T19:18:39.609Z,-14.11
2023-02-19T19:21:10.553Z,-14.38
2023-02-19T19:23:39.386Z,-14.30
2023-02-19T19:26:08.181Z,-14.68
2023-02-19T19:28:45.681Z,-14.48
2023-02-19T19:31:16.833Z,-14.54
2023-02-19T19:33:47.510Z,-14.80
2023-02-19T19:36:20.734Z,-14.52
2023-02-19T19:38:50.432Z,-14.70
2023-02-19T19:41:21.083Z,-14.67
2023-02-19T19:43:49.786Z,-15.10
2023-02-19T19:46:21.689Z,-15.02
2023-02-19T19:48:53.780Z,-14.94
2023-02-19T19:51:22.451Z,-15.66
2023-02-19T19:53:51.442Z,-15.67
2023-02-19T19:56:20.096Z,-15.44
2023-02-19T19:58:49.237Z,-15.31
2023-02-19T20:01:21.647Z,-15.45
2023-02-19T20:03:52.246Z,-15.47
2023-02-19T20:06:32.186Z,-15.52
2023-02-19T20:09:01.041Z,-15.32
2023-02-19T20:11:29.650Z,-15.36
2023-02-19T20:13:59.407Z,-15.21
2023-02-19T20:16:29.138Z,-15.35
2023-02-19T20:18:57.982Z,-15.14
2023-02-19T20:21:27.015Z,-15.19
2023-02-19T20:23:55.638Z,-14.96
2023-02-19T20:26:26.397Z,-15.60
2023-02-19T20:28:56.337Z,-15.10
2023-02-19T20:31:26.018Z,-15.19
2023-02-19T20:33:54.938Z,-15.16
2023-02-19T20:36:23.573Z,-15.12
2023-02-19T20:38:52.269Z,-14.97
2023-02-19T20:41:21.005Z,-15.01
2023-02-19T20:43:50.392Z,-15.23
2023-02-19T20:46:22.315Z,-15.35
2023-02-19T20:48:51.996Z,-15.40
2023-02-19T20:51:20.873Z,-15.51
2023-02-19T20:53:49.455Z,-15.45
2023-02-19T20:56:18.625Z,-15.74
2023-02-19T20:58:47.336Z,-15.63
2023-02-19T21:01:16.055Z,-15.84
2023-02-19T21:03:47.735Z,-16.80
2023-02-19T21:06:18.693Z,-16.13
2023-02-19T21:08:47.516Z,-16.10
2023-02-19T21:11:16.251Z,-16.26
2023-02-19T21:13:44.958Z,-16.38
2023-02-19T21:16:13.982Z,-17.07
2023-02-19T21:18:43.260Z,-16.53
2023-02-19T21:21:12.021Z,-16.56
2023-02-19T21:23:40.673Z,-16.54
2023-02-19T21:26:09.520Z,-16.58
2023-02-19T21:28:39.173Z,-16.78
2023-02-19T21:31:07.931Z,-16.90
2023-02-19T21:33:36.774Z,-16.83
2023-02-19T21:36:06.214Z,-16.91
2023-02-19T21:38:34.921Z,-16.93
2023-02-19T21:41:03.716Z,-17.17
2023-02-19T21:43:32.726Z,-17.23
2023-02-19T21:46:01.464Z,-17.84
2023-02-19T21:48:30.213Z,-17.30
2023-02-19T21:50:58.708Z,-17.46
2023-02-19T21:53:27.499Z,-17.48
2023-02-19T21:55:59.397Z,-17.71
2023-02-19T21:58:28.097Z,-17.59
2023-02-19T22:00:58.769Z,-17.96
2023-02-19T22:03:27.377Z,-17.63
2023-02-19T22:05:56.221Z,-17.91
2023-02-19T22:08:24.863Z,-17.89
2023-02-19T22:10:53.455Z,-17.97
2023-02-19T22:13:22.225Z,-18.46
2023-02-19T22:15:50.960Z,-17.85
2023-02-19T22:18:19.467Z,-17.96
2023-02-19T22:20:48.173Z,-17.95
2023-02-19T22:23:16.891Z,-17.83
2023-02-19T22:25:45.591Z,-17.91
2023-02-19T22:28:14.124Z,-18.47
2023-02-19T22:30:43.589Z,-18.02
2023-02-19T22:33:12.083Z,-18.05
2023-02-19T22:35:40.789Z,-17.99
2023-02-19T22:38:09.325Z,-18.04
2023-02-19T22:40:38.088Z,-17.92
2023-02-19T22:43:06.848Z,-17.96
2023-02-19T22:45:35.496Z,-18.07
2023-02-19T22:48:04.410Z,-18.14
2023-02-19T22:50:33.455Z,-18.05
2023-02-19T22:53:02.289Z,-18.30
2023-02-19T22:55:31.743Z,-18.21
2023-02-19T22:58:00.343Z,-18.13
2023-02-19T23:00:28.953Z,-18.19
2023-02-19T23:02:57.826Z,-18.28
2023-02-19T23:05:26.536Z,-18.02
2023-02-19T23:07:55.088Z,-18.14
2023-02-19T23:10:24.008Z,-18.18
2023-02-19T23:12:52.527Z,-18.35
2023-02-19T23:15:21.090Z,-18.93
2023-02-19T23:17:49.599Z,-18.45
2023-02-19T23:20:18.335Z,-18.49
2023-02-19T23:22:46.659Z,-18.50
2023-02-19T23:25:15.473Z,-18.58
2023-02-19T23:27:44.305Z,-18.62
2023-02-19T23:30:13.650Z,-18.59
2023-02-19T23:32:42.358Z,-18.61
2023-02-19T23:35:11.386Z,-18.73
2023-02-19T23:37:40.083Z,-18.85
2023-02-19T23:40:09.290Z,-19.12
2023-02-19T23:42:38.156Z,-19.01
2023-02-19T23:45:07.089Z,-18.81
2023-02-19T23:47:35.801Z,-18.91
2023-02-19T23:50:04.383Z,-19.08
2023-02-19T23:52:33.165Z,-19.11
2023-02-19T23:55:01.769Z,-19.13
2023-02-19T23:57:30.448Z,-19.33
2023-02-19T23:59:59.218Z,-19.20
